sensor_id;sensor_type;location;lat;lon;timestamp;P1;durP1;ratioP1;P2;durP2;ratioP2
4585;SDS011;2305;50.118;8.952;2022-09-17T00:01:30;2.00;;;1.43;;
4585;SDS011;2305;50.118;8.952;2022-09-17T00:03:59;4.20;;;1.47;;
4585;SDS011;2305;50.118;8.952;2022-09-17T00:06:30;4.83;;;1.60;;
4585;SDS011;2305;50.118;8.952;2022-09-17T00:08:59;7.10;;;1.53;;
4585;SDS011;2305;50.118;8.952;2022-09-17T00:11:28;4.57;;;2.57;;
4585;SDS011;2305;50.118;8.952;2022-09-17T00:13:58;4.50;;;1.70;;
4585;SDS011;2305;50.118;8.952;2022-09-17T00:16:29;5.80;;;2.37;;
4585;SDS011;2305;50.118;8.952;2022-09-17T00:18:59;4.50;;;1.67;;
4585;SDS011;2305;50.118;8.952;2022-09-17T00:21:29;3.30;;;1.60;;
4585;SDS011;2305;50.118;8.952;2022-09-17T00:23:57;2.87;;;1.60;;
4585;SDS011;2305;50.118;8.952;2022-09-17T00:26:26;4.97;;;1.60;;
4585;SDS011;2305;50.118;8.952;2022-09-17T00:28:55;3.93;;;1.70;;
4585;SDS011;2305;50.118;8.952;2022-09-17T00:31:24;9.40;;;3.23;;
4585;SDS011;2305;50.118;8.952;2022-09-17T00:33:55;4.43;;;1.57;;
4585;SDS011;2305;50.118;8.952;2022-09-17T00:36:24;5.03;;;1.70;;
4585;SDS011;2305;50.118;8.952;2022-09-17T00:38:54;6.73;;;1.53;;
4585;SDS011;2305;50.118;8.952;2022-09-17T00:41:24;2.60;;;1.50;;
4585;SDS011;2305;50.118;8.952;2022-09-17T00:43:55;4.27;;;1.73;;
4585;SDS011;2305;50.118;8.952;2022-09-17T00:46:29;4.60;;;2.20;;
4585;SDS011;2305;50.118;8.952;2022-09-17T00:49:02;4.23;;;2.20;;
4585;SDS011;2305;50.118;8.952;2022-09-17T00:51:33;2.50;;;1.60;;
4585;SDS011;2305;50.118;8.952;2022-09-17T00:54:04;5.83;;;2.03;;
4585;SDS011;2305;50.118;8.952;2022-09-17T00:56:34;6.23;;;1.90;;
4585;SDS011;2305;50.118;8.952;2022-09-17T00:59:05;8.50;;;1.87;;
4585;SDS011;2305;50.118;8.952;2022-09-17T01:01:34;5.73;;;1.90;;
4585;SDS011;2305;50.118;8.952;2022-09-17T01:04:04;5.13;;;1.80;;
4585;SDS011;2305;50.118;8.952;2022-09-17T01:06:33;7.60;;;2.03;;
4585;SDS011;2305;50.118;8.952;2022-09-17T01:09:12;5.07;;;1.60;;
4585;SDS011;2305;50.118;8.952;2022-09-17T01:11:53;4.00;;;1.57;;
4585;SDS011;2305;50.118;8.952;2022-09-17T01:14:40;3.03;;;1.50;;
4585;SDS011;2305;50.118;8.952;2022-09-17T01:17:23;6.50;;;1.60;;
4585;SDS011;2305;50.118;8.952;2022-09-17T01:20:05;3.47;;;1.80;;
4585;SDS011;2305;50.118;8.952;2022-09-17T01:22:58;5.33;;;1.67;;
4585;SDS011;2305;50.118;8.952;2022-09-17T01:25:40;3.77;;;1.40;;
4585;SDS011;2305;50.118;8.952;2022-09-17T01:28:26;4.07;;;1.50;;
4585;SDS011;2305;50.118;8.952;2022-09-17T01:31:03;8.63;;;1.70;;
4585;SDS011;2305;50.118;8.952;2022-09-17T01:33:40;5.00;;;1.30;;
4585;SDS011;2305;50.118;8.952;2022-09-17T01:36:18;3.97;;;1.57;;
4585;SDS011;2305;50.118;8.952;2022-09-17T01:38:57;4.70;;;1.53;;
4585;SDS011;2305;50.118;8.952;2022-09-17T01:41:33;4.40;;;1.57;;
4585;SDS011;2305;50.118;8.952;2022-09-17T01:44:09;10.77;;;2.00;;
4585;SDS011;2305;50.118;8.952;2022-09-17T01:46:45;5.90;;;1.63;;
4585;SDS011;2305;50.118;8.952;2022-09-17T01:49:18;3.70;;;1.50;;
4585;SDS011;2305;50.118;8.952;2022-09-17T01:51:50;3.77;;;1.40;;
4585;SDS011;2305;50.118;8.952;2022-09-17T01:54:22;4.60;;;1.20;;
4585;SDS011;2305;50.118;8.952;2022-09-17T01:56:54;7.60;;;1.87;;
4585;SDS011;2305;50.118;8.952;2022-09-17T01:59:28;9.63;;;1.80;;
4585;SDS011;2305;50.118;8.952;2022-09-17T02:02:04;8.57;;;1.50;;
4585;SDS011;2305;50.118;8.952;2022-09-17T02:04:35;3.27;;;1.13;;
4585;SDS011;2305;50.118;8.952;2022-09-17T02:07:10;9.83;;;2.80;;
4585;SDS011;2305;50.118;8.952;2022-09-17T02:09:42;6.23;;;2.10;;
4585;SDS011;2305;50.118;8.952;2022-09-17T02:12:17;3.30;;;1.47;;
4585;SDS011;2305;50.118;8.952;2022-09-17T02:14:50;5.67;;;1.60;;
4585;SDS011;2305;50.118;8.952;2022-09-17T02:17:24;4.10;;;1.50;;
4585;SDS011;2305;50.118;8.952;2022-09-17T02:19:57;3.80;;;1.57;;
4585;SDS011;2305;50.118;8.952;2022-09-17T02:22:31;7.33;;;1.43;;
4585;SDS011;2305;50.118;8.952;2022-09-17T02:25:05;8.07;;;1.73;;
4585;SDS011;2305;50.118;8.952;2022-09-17T02:27:39;8.50;;;1.50;;
4585;SDS011;2305;50.118;8.952;2022-09-17T02:30:14;5.43;;;1.67;;
4585;SDS011;2305;50.118;8.952;2022-09-17T02:32:44;13.40;;;1.60;;
4585;SDS011;2305;50.118;8.952;2022-09-17T02:35:12;5.23;;;1.70;;
4585;SDS011;2305;50.118;8.952;2022-09-17T02:37:41;2.57;;;1.60;;
4585;SDS011;2305;50.118;8.952;2022-09-17T02:40:10;6.43;;;1.40;;
4585;SDS011;2305;50.118;8.952;2022-09-17T02:42:46;5.27;;;1.77;;
4585;SDS011;2305;50.118;8.952;2022-09-17T02:45:32;6.77;;;1.80;;
4585;SDS011;2305;50.118;8.952;2022-09-17T02:48:19;3.90;;;1.10;;
4585;SDS011;2305;50.118;8.952;2022-09-17T02:50:59;4.40;;;2.07;;
4585;SDS011;2305;50.118;8.952;2022-09-17T02:53:42;8.90;;;1.50;;
4585;SDS011;2305;50.118;8.952;2022-09-17T02:56:17;3.97;;;1.70;;
4585;SDS011;2305;50.118;8.952;2022-09-17T02:58:51;8.00;;;2.00;;
4585;SDS011;2305;50.118;8.952;2022-09-17T03:01:27;3.87;;;1.43;;
4585;SDS011;2305;50.118;8.952;2022-09-17T03:04:01;7.57;;;1.53;;
4585;SDS011;2305;50.118;8.952;2022-09-17T03:06:32;4.63;;;1.10;;
4585;SDS011;2305;50.118;8.952;2022-09-17T03:09:00;6.63;;;1.77;;
4585;SDS011;2305;50.118;8.952;2022-09-17T03:11:28;10.60;;;1.90;;
4585;SDS011;2305;50.118;8.952;2022-09-17T03:13:56;3.70;;;1.63;;
4585;SDS011;2305;50.118;8.952;2022-09-17T03:16:24;3.33;;;1.50;;
4585;SDS011;2305;50.118;8.952;2022-09-17T03:18:52;11.40;;;1.73;;
4585;SDS011;2305;50.118;8.952;2022-09-17T03:21:21;3.77;;;1.53;;
4585;SDS011;2305;50.118;8.952;2022-09-17T03:23:49;3.63;;;1.73;;
4585;SDS011;2305;50.118;8.952;2022-09-17T03:26:18;2.70;;;1.30;;
4585;SDS011;2305;50.118;8.952;2022-09-17T03:28:46;3.47;;;1.40;;
4585;SDS011;2305;50.118;8.952;2022-09-17T03:31:14;6.80;;;1.90;;
4585;SDS011;2305;50.118;8.952;2022-09-17T03:33:41;3.60;;;1.70;;
4585;SDS011;2305;50.118;8.952;2022-09-17T03:36:09;6.90;;;1.90;;
4585;SDS011;2305;50.118;8.952;2022-09-17T03:38:39;8.90;;;1.50;;
4585;SDS011;2305;50.118;8.952;2022-09-17T03:41:07;3.67;;;1.40;;
4585;SDS011;2305;50.118;8.952;2022-09-17T03:43:34;5.00;;;2.03;;
4585;SDS011;2305;50.118;8.952;2022-09-17T03:46:02;4.50;;;1.53;;
4585;SDS011;2305;50.118;8.952;2022-09-17T03:48:31;7.90;;;1.80;;
4585;SDS011;2305;50.118;8.952;2022-09-17T03:51:02;4.77;;;2.00;;
4585;SDS011;2305;50.118;8.952;2022-09-17T03:53:30;7.27;;;2.00;;
4585;SDS011;2305;50.118;8.952;2022-09-17T03:56:00;6.43;;;1.57;;
4585;SDS011;2305;50.118;8.952;2022-09-17T03:58:34;5.87;;;1.67;;
4585;SDS011;2305;50.118;8.952;2022-09-17T04:01:02;6.03;;;1.57;;
4585;SDS011;2305;50.118;8.952;2022-09-17T04:03:31;6.80;;;1.97;;
4585;SDS011;2305;50.118;8.952;2022-09-17T04:05:59;5.93;;;1.70;;
4585;SDS011;2305;50.118;8.952;2022-09-17T04:08:29;10.50;;;1.80;;
4585;SDS011;2305;50.118;8.952;2022-09-17T04:10:57;4.47;;;2.70;;
4585;SDS011;2305;50.118;8.952;2022-09-17T04:13:27;7.30;;;1.80;;
4585;SDS011;2305;50.118;8.952;2022-09-17T04:15:54;10.03;;;2.17;;
4585;SDS011;2305;50.118;8.952;2022-09-17T04:18:22;4.30;;;1.73;;
4585;SDS011;2305;50.118;8.952;2022-09-17T04:20:51;7.50;;;2.43;;
4585;SDS011;2305;50.118;8.952;2022-09-17T04:23:19;2.87;;;1.60;;
4585;SDS011;2305;50.118;8.952;2022-09-17T04:25:47;6.10;;;2.00;;
4585;SDS011;2305;50.118;8.952;2022-09-17T04:28:16;5.03;;;1.63;;
4585;SDS011;2305;50.118;8.952;2022-09-17T04:30:45;4.03;;;1.60;;
4585;SDS011;2305;50.118;8.952;2022-09-17T04:33:14;2.93;;;1.60;;
4585;SDS011;2305;50.118;8.952;2022-09-17T04:35:42;3.33;;;1.50;;
4585;SDS011;2305;50.118;8.952;2022-09-17T04:38:10;5.53;;;2.00;;
4585;SDS011;2305;50.118;8.952;2022-09-17T04:40:39;4.40;;;1.50;;
4585;SDS011;2305;50.118;8.952;2022-09-17T04:43:07;3.50;;;1.60;;
4585;SDS011;2305;50.118;8.952;2022-09-17T04:45:37;8.20;;;2.23;;
4585;SDS011;2305;50.118;8.952;2022-09-17T04:48:05;5.30;;;1.77;;
4585;SDS011;2305;50.118;8.952;2022-09-17T04:50:35;10.33;;;2.30;;
4585;SDS011;2305;50.118;8.952;2022-09-17T04:53:03;9.10;;;2.87;;
4585;SDS011;2305;50.118;8.952;2022-09-17T04:55:31;9.90;;;3.10;;
4585;SDS011;2305;50.118;8.952;2022-09-17T04:57:59;4.30;;;1.90;;
4585;SDS011;2305;50.118;8.952;2022-09-17T05:00:27;5.10;;;1.70;;
4585;SDS011;2305;50.118;8.952;2022-09-17T05:02:56;7.07;;;1.60;;
4585;SDS011;2305;50.118;8.952;2022-09-17T05:05:26;3.40;;;1.53;;
4585;SDS011;2305;50.118;8.952;2022-09-17T05:07:54;7.97;;;1.67;;
4585;SDS011;2305;50.118;8.952;2022-09-17T05:10:22;3.50;;;2.10;;
4585;SDS011;2305;50.118;8.952;2022-09-17T05:12:51;4.43;;;1.57;;
4585;SDS011;2305;50.118;8.952;2022-09-17T05:15:20;6.20;;;1.90;;
4585;SDS011;2305;50.118;8.952;2022-09-17T05:17:50;2.37;;;1.40;;
4585;SDS011;2305;50.118;8.952;2022-09-17T05:20:21;8.40;;;1.90;;
4585;SDS011;2305;50.118;8.952;2022-09-17T05:22:50;9.07;;;1.77;;
4585;SDS011;2305;50.118;8.952;2022-09-17T05:25:19;5.90;;;1.60;;
4585;SDS011;2305;50.118;8.952;2022-09-17T05:27:49;6.93;;;2.00;;
4585;SDS011;2305;50.118;8.952;2022-09-17T05:30:17;5.07;;;1.77;;
4585;SDS011;2305;50.118;8.952;2022-09-17T05:32:48;5.07;;;1.77;;
4585;SDS011;2305;50.118;8.952;2022-09-17T05:35:25;5.43;;;1.70;;
4585;SDS011;2305;50.118;8.952;2022-09-17T05:37:57;10.77;;;2.20;;
4585;SDS011;2305;50.118;8.952;2022-09-17T05:40:26;8.03;;;1.90;;
4585;SDS011;2305;50.118;8.952;2022-09-17T05:42:57;8.10;;;2.20;;
4585;SDS011;2305;50.118;8.952;2022-09-17T05:45:26;6.90;;;2.57;;
4585;SDS011;2305;50.118;8.952;2022-09-17T05:47:54;7.20;;;2.10;;
4585;SDS011;2305;50.118;8.952;2022-09-17T05:50:23;7.23;;;2.37;;
4585;SDS011;2305;50.118;8.952;2022-09-17T05:52:53;9.03;;;2.10;;
4585;SDS011;2305;50.118;8.952;2022-09-17T05:55:22;8.07;;;2.40;;
4585;SDS011;2305;50.118;8.952;2022-09-17T05:57:50;4.80;;;2.03;;
4585;SDS011;2305;50.118;8.952;2022-09-17T06:00:18;3.73;;;1.77;;
4585;SDS011;2305;50.118;8.952;2022-09-17T06:02:47;5.57;;;1.53;;
4585;SDS011;2305;50.118;8.952;2022-09-17T06:05:21;5.47;;;2.07;;
4585;SDS011;2305;50.118;8.952;2022-09-17T06:07:48;7.33;;;2.40;;
4585;SDS011;2305;50.118;8.952;2022-09-17T06:10:18;4.97;;;2.27;;
4585;SDS011;2305;50.118;8.952;2022-09-17T06:12:46;6.00;;;1.57;;
4585;SDS011;2305;50.118;8.952;2022-09-17T06:15:13;18.33;;;5.47;;
4585;SDS011;2305;50.118;8.952;2022-09-17T06:17:41;14.50;;;3.00;;
4585;SDS011;2305;50.118;8.952;2022-09-17T06:20:09;4.13;;;1.93;;
4585;SDS011;2305;50.118;8.952;2022-09-17T06:22:39;6.73;;;2.07;;
4585;SDS011;2305;50.118;8.952;2022-09-17T06:25:07;6.07;;;2.20;;
4585;SDS011;2305;50.118;8.952;2022-09-17T06:27:39;8.50;;;2.53;;
4585;SDS011;2305;50.118;8.952;2022-09-17T06:30:07;4.03;;;1.90;;
4585;SDS011;2305;50.118;8.952;2022-09-17T06:32:35;5.50;;;1.90;;
4585;SDS011;2305;50.118;8.952;2022-09-17T06:35:03;4.03;;;2.10;;
4585;SDS011;2305;50.118;8.952;2022-09-17T06:37:32;7.53;;;1.93;;
4585;SDS011;2305;50.118;8.952;2022-09-17T06:40:01;5.87;;;2.37;;
4585;SDS011;2305;50.118;8.952;2022-09-17T06:42:30;5.77;;;2.17;;
4585;SDS011;2305;50.118;8.952;2022-09-17T06:44:59;9.37;;;2.50;;
4585;SDS011;2305;50.118;8.952;2022-09-17T06:47:34;10.80;;;2.63;;
4585;SDS011;2305;50.118;8.952;2022-09-17T06:50:02;13.37;;;2.30;;
4585;SDS011;2305;50.118;8.952;2022-09-17T06:52:30;5.77;;;2.33;;
4585;SDS011;2305;50.118;8.952;2022-09-17T06:54:58;6.80;;;2.47;;
4585;SDS011;2305;50.118;8.952;2022-09-17T06:57:26;7.27;;;2.53;;
4585;SDS011;2305;50.118;8.952;2022-09-17T06:59:53;13.47;;;2.57;;
4585;SDS011;2305;50.118;8.952;2022-09-17T07:02:23;8.33;;;3.37;;
4585;SDS011;2305;50.118;8.952;2022-09-17T07:04:51;9.70;;;3.27;;
4585;SDS011;2305;50.118;8.952;2022-09-17T07:07:20;6.00;;;2.90;;
4585;SDS011;2305;50.118;8.952;2022-09-17T07:09:48;12.83;;;4.07;;
4585;SDS011;2305;50.118;8.952;2022-09-17T07:12:16;4.93;;;2.87;;
4585;SDS011;2305;50.118;8.952;2022-09-17T07:14:44;9.27;;;3.10;;
4585;SDS011;2305;50.118;8.952;2022-09-17T07:17:12;9.53;;;3.60;;
4585;SDS011;2305;50.118;8.952;2022-09-17T07:19:42;8.57;;;4.10;;
4585;SDS011;2305;50.118;8.952;2022-09-17T07:22:10;9.33;;;4.37;;
4585;SDS011;2305;50.118;8.952;2022-09-17T07:24:39;10.40;;;3.27;;
4585;SDS011;2305;50.118;8.952;2022-09-17T07:27:07;8.83;;;4.03;;
4585;SDS011;2305;50.118;8.952;2022-09-17T07:29:35;15.07;;;4.70;;
4585;SDS011;2305;50.118;8.952;2022-09-17T07:32:03;6.40;;;3.40;;
4585;SDS011;2305;50.118;8.952;2022-09-17T07:34:31;14.93;;;4.60;;
4585;SDS011;2305;50.118;8.952;2022-09-17T07:37:00;8.33;;;3.57;;
4585;SDS011;2305;50.118;8.952;2022-09-17T07:39:28;7.60;;;3.60;;
4585;SDS011;2305;50.118;8.952;2022-09-17T07:41:56;12.83;;;3.87;;
4585;SDS011;2305;50.118;8.952;2022-09-17T07:44:24;5.03;;;3.20;;
4585;SDS011;2305;50.118;8.952;2022-09-17T07:46:54;7.67;;;4.33;;
4585;SDS011;2305;50.118;8.952;2022-09-17T07:49:22;9.10;;;3.20;;
4585;SDS011;2305;50.118;8.952;2022-09-17T07:51:50;7.80;;;3.90;;
4585;SDS011;2305;50.118;8.952;2022-09-17T07:54:21;10.40;;;3.77;;
4585;SDS011;2305;50.118;8.952;2022-09-17T07:56:50;17.73;;;4.87;;
4585;SDS011;2305;50.118;8.952;2022-09-17T07:59:18;11.17;;;3.50;;
4585;SDS011;2305;50.118;8.952;2022-09-17T08:01:46;10.20;;;3.37;;
4585;SDS011;2305;50.118;8.952;2022-09-17T08:04:14;8.77;;;3.30;;
4585;SDS011;2305;50.118;8.952;2022-09-17T08:06:42;23.17;;;3.60;;
4585;SDS011;2305;50.118;8.952;2022-09-17T08:09:13;8.40;;;2.67;;
4585;SDS011;2305;50.118;8.952;2022-09-17T08:11:44;5.50;;;3.03;;
4585;SDS011;2305;50.118;8.952;2022-09-17T08:14:27;12.30;;;3.13;;
4585;SDS011;2305;50.118;8.952;2022-09-17T08:16:55;10.40;;;3.30;;
4585;SDS011;2305;50.118;8.952;2022-09-17T08:19:23;13.50;;;3.40;;
4585;SDS011;2305;50.118;8.952;2022-09-17T08:21:51;6.70;;;2.90;;
4585;SDS011;2305;50.118;8.952;2022-09-17T08:24:19;16.47;;;5.33;;
4585;SDS011;2305;50.118;8.952;2022-09-17T08:26:48;5.60;;;2.90;;
4585;SDS011;2305;50.118;8.952;2022-09-17T08:29:16;13.80;;;4.23;;
4585;SDS011;2305;50.118;8.952;2022-09-17T08:31:44;14.17;;;3.23;;
4585;SDS011;2305;50.118;8.952;2022-09-17T08:34:12;6.37;;;3.30;;
4585;SDS011;2305;50.118;8.952;2022-09-17T08:36:43;12.80;;;2.87;;
4585;SDS011;2305;50.118;8.952;2022-09-17T08:39:10;8.70;;;3.93;;
4585;SDS011;2305;50.118;8.952;2022-09-17T08:41:42;14.97;;;3.57;;
4585;SDS011;2305;50.118;8.952;2022-09-17T08:44:22;7.20;;;3.10;;
4585;SDS011;2305;50.118;8.952;2022-09-17T08:46:53;10.33;;;3.70;;
4585;SDS011;2305;50.118;8.952;2022-09-17T08:49:31;6.53;;;3.03;;
4585;SDS011;2305;50.118;8.952;2022-09-17T08:52:11;9.47;;;2.50;;
4585;SDS011;2305;50.118;8.952;2022-09-17T08:54:52;6.60;;;2.77;;
4585;SDS011;2305;50.118;8.952;2022-09-17T08:57:29;4.50;;;2.47;;
4585;SDS011;2305;50.118;8.952;2022-09-17T09:00:08;8.63;;;3.07;;
4585;SDS011;2305;50.118;8.952;2022-09-17T09:02:42;6.50;;;2.50;;
4585;SDS011;2305;50.118;8.952;2022-09-17T09:05:23;5.57;;;2.60;;
4585;SDS011;2305;50.118;8.952;2022-09-17T09:07:56;7.07;;;2.50;;
4585;SDS011;2305;50.118;8.952;2022-09-17T09:10:35;9.40;;;2.83;;
4585;SDS011;2305;50.118;8.952;2022-09-17T09:13:16;6.50;;;2.13;;
4585;SDS011;2305;50.118;8.952;2022-09-17T09:15:52;10.03;;;2.40;;
4585;SDS011;2305;50.118;8.952;2022-09-17T09:18:24;7.03;;;2.53;;
4585;SDS011;2305;50.118;8.952;2022-09-17T09:20:59;6.83;;;2.30;;
4585;SDS011;2305;50.118;8.952;2022-09-17T09:23:39;4.40;;;2.27;;
4585;SDS011;2305;50.118;8.952;2022-09-17T09:26:17;7.33;;;2.30;;
4585;SDS011;2305;50.118;8.952;2022-09-17T09:28:52;6.87;;;1.67;;
4585;SDS011;2305;50.118;8.952;2022-09-17T09:31:46;4.10;;;2.07;;
4585;SDS011;2305;50.118;8.952;2022-09-17T09:34:24;5.27;;;1.80;;
4585;SDS011;2305;50.118;8.952;2022-09-17T09:36:53;2.67;;;1.97;;
4585;SDS011;2305;50.118;8.952;2022-09-17T09:39:32;10.40;;;1.80;;
4585;SDS011;2305;50.118;8.952;2022-09-17T09:42:13;10.20;;;2.20;;
4585;SDS011;2305;50.118;8.952;2022-09-17T09:44:45;7.70;;;2.20;;
4585;SDS011;2305;50.118;8.952;2022-09-17T09:47:26;5.07;;;1.70;;
4585;SDS011;2305;50.118;8.952;2022-09-17T09:50:17;10.83;;;2.60;;
4585;SDS011;2305;50.118;8.952;2022-09-17T09:53:17;4.97;;;1.87;;
4585;SDS011;2305;50.118;8.952;2022-09-17T09:56:00;7.57;;;2.30;;
4585;SDS011;2305;50.118;8.952;2022-09-17T09:58:35;4.70;;;2.27;;
4585;SDS011;2305;50.118;8.952;2022-09-17T10:01:07;8.20;;;1.93;;
4585;SDS011;2305;50.118;8.952;2022-09-17T10:03:41;4.47;;;1.83;;
4585;SDS011;2305;50.118;8.952;2022-09-17T10:06:14;4.80;;;1.87;;
4585;SDS011;2305;50.118;8.952;2022-09-17T10:11:39;4.70;;;1.90;;
4585;SDS011;2305;50.118;8.952;2022-09-17T10:14:18;5.00;;;2.10;;
4585;SDS011;2305;50.118;8.952;2022-09-17T10:16:49;3.57;;;2.00;;
4585;SDS011;2305;50.118;8.952;2022-09-17T10:19:40;6.60;;;1.87;;
4585;SDS011;2305;50.118;8.952;2022-09-17T10:22:22;4.83;;;2.07;;
4585;SDS011;2305;50.118;8.952;2022-09-17T10:24:53;5.07;;;2.30;;
4585;SDS011;2305;50.118;8.952;2022-09-17T10:27:23;4.73;;;1.90;;
4585;SDS011;2305;50.118;8.952;2022-09-17T10:29:55;8.37;;;2.17;;
4585;SDS011;2305;50.118;8.952;2022-09-17T10:32:29;7.03;;;1.97;;
4585;SDS011;2305;50.118;8.952;2022-09-17T10:34:59;3.27;;;2.03;;
4585;SDS011;2305;50.118;8.952;2022-09-17T10:37:31;4.27;;;2.33;;
4585;SDS011;2305;50.118;8.952;2022-09-17T10:40:10;4.77;;;1.93;;
4585;SDS011;2305;50.118;8.952;2022-09-17T10:45:53;8.60;;;2.30;;
4585;SDS011;2305;50.118;8.952;2022-09-17T10:48:24;13.83;;;2.10;;
4585;SDS011;2305;50.118;8.952;2022-09-17T10:50:58;4.63;;;2.17;;
4585;SDS011;2305;50.118;8.952;2022-09-17T10:53:28;5.90;;;2.57;;
4585;SDS011;2305;50.118;8.952;2022-09-17T10:55:58;6.47;;;2.03;;
4585;SDS011;2305;50.118;8.952;2022-09-17T10:58:37;5.07;;;1.80;;
4585;SDS011;2305;50.118;8.952;2022-09-17T11:01:22;6.90;;;2.00;;
4585;SDS011;2305;50.118;8.952;2022-09-17T11:04:09;7.87;;;2.00;;
4585;SDS011;2305;50.118;8.952;2022-09-17T11:07:01;6.57;;;1.80;;
4585;SDS011;2305;50.118;8.952;2022-09-17T11:09:39;6.63;;;1.63;;
4585;SDS011;2305;50.118;8.952;2022-09-17T11:12:27;3.20;;;1.60;;
4585;SDS011;2305;50.118;8.952;2022-09-17T11:15:08;6.13;;;1.53;;
4585;SDS011;2305;50.118;8.952;2022-09-17T11:17:53;10.30;;;2.30;;
4585;SDS011;2305;50.118;8.952;2022-09-17T11:20:48;6.47;;;1.70;;
4585;SDS011;2305;50.118;8.952;2022-09-17T11:23:45;3.93;;;1.73;;
4585;SDS011;2305;50.118;8.952;2022-09-17T11:26:28;5.47;;;1.50;;
4585;SDS011;2305;50.118;8.952;2022-09-17T11:29:02;6.23;;;3.00;;
4585;SDS011;2305;50.118;8.952;2022-09-17T11:31:46;4.57;;;1.87;;
4585;SDS011;2305;50.118;8.952;2022-09-17T11:34:23;5.03;;;1.60;;
4585;SDS011;2305;50.118;8.952;2022-09-17T11:36:58;3.63;;;2.50;;
4585;SDS011;2305;50.118;8.952;2022-09-17T11:39:33;5.20;;;1.40;;
4585;SDS011;2305;50.118;8.952;2022-09-17T11:42:09;5.33;;;1.67;;
4585;SDS011;2305;50.118;8.952;2022-09-17T11:44:42;5.10;;;1.53;;
4585;SDS011;2305;50.118;8.952;2022-09-17T11:47:17;2.57;;;1.30;;
4585;SDS011;2305;50.118;8.952;2022-09-17T11:49:49;2.03;;;1.50;;
4585;SDS011;2305;50.118;8.952;2022-09-17T11:52:23;8.10;;;2.00;;
4585;SDS011;2305;50.118;8.952;2022-09-17T11:54:56;9.43;;;1.80;;
4585;SDS011;2305;50.118;8.952;2022-09-17T11:57:30;2.40;;;1.10;;
4585;SDS011;2305;50.118;8.952;2022-09-17T12:00:02;5.40;;;1.77;;
4585;SDS011;2305;50.118;8.952;2022-09-17T12:02:43;7.30;;;1.50;;
4585;SDS011;2305;50.118;8.952;2022-09-17T12:05:17;3.20;;;1.43;;
4585;SDS011;2305;50.118;8.952;2022-09-17T12:07:49;4.87;;;1.83;;
4585;SDS011;2305;50.118;8.952;2022-09-17T12:10:37;7.73;;;1.60;;
4585;SDS011;2305;50.118;8.952;2022-09-17T12:13:14;2.30;;;1.00;;
4585;SDS011;2305;50.118;8.952;2022-09-17T12:15:46;2.87;;;1.23;;
4585;SDS011;2305;50.118;8.952;2022-09-17T12:18:22;2.67;;;1.07;;
4585;SDS011;2305;50.118;8.952;2022-09-17T12:20:59;4.17;;;1.40;;
4585;SDS011;2305;50.118;8.952;2022-09-17T12:23:33;2.40;;;1.57;;
4585;SDS011;2305;50.118;8.952;2022-09-17T12:26:11;4.37;;;2.00;;
4585;SDS011;2305;50.118;8.952;2022-09-17T12:28:48;2.23;;;1.10;;
4585;SDS011;2305;50.118;8.952;2022-09-17T12:31:24;6.10;;;2.00;;
4585;SDS011;2305;50.118;8.952;2022-09-17T12:34:05;4.23;;;1.47;;
4585;SDS011;2305;50.118;8.952;2022-09-17T12:36:49;3.30;;;1.23;;
4585;SDS011;2305;50.118;8.952;2022-09-17T12:39:35;2.40;;;1.27;;
4585;SDS011;2305;50.118;8.952;2022-09-17T12:42:23;4.03;;;1.30;;
4585;SDS011;2305;50.118;8.952;2022-09-17T12:45:08;5.77;;;2.03;;
4585;SDS011;2305;50.118;8.952;2022-09-17T12:48:00;6.50;;;1.30;;
4585;SDS011;2305;50.118;8.952;2022-09-17T12:50:40;5.97;;;1.60;;
4585;SDS011;2305;50.118;8.952;2022-09-17T12:53:22;4.03;;;1.47;;
4585;SDS011;2305;50.118;8.952;2022-09-17T12:56:01;8.60;;;3.60;;
4585;SDS011;2305;50.118;8.952;2022-09-17T12:58:37;4.13;;;1.60;;
4585;SDS011;2305;50.118;8.952;2022-09-17T13:01:18;4.30;;;2.20;;
4585;SDS011;2305;50.118;8.952;2022-09-17T13:03:54;6.90;;;1.43;;
4585;SDS011;2305;50.118;8.952;2022-09-17T13:09:46;5.40;;;1.20;;
4585;SDS011;2305;50.118;8.952;2022-09-17T13:12:27;3.57;;;1.10;;
4585;SDS011;2305;50.118;8.952;2022-09-17T13:15:14;1.80;;;1.00;;
4585;SDS011;2305;50.118;8.952;2022-09-17T13:18:02;2.90;;;1.10;;
4585;SDS011;2305;50.118;8.952;2022-09-17T13:20:59;4.83;;;1.07;;
4585;SDS011;2305;50.118;8.952;2022-09-17T13:23:33;5.63;;;1.43;;
4585;SDS011;2305;50.118;8.952;2022-09-17T13:26:05;2.60;;;1.40;;
4585;SDS011;2305;50.118;8.952;2022-09-17T13:28:35;4.13;;;1.57;;
4585;SDS011;2305;50.118;8.952;2022-09-17T13:31:17;4.70;;;1.40;;
4585;SDS011;2305;50.118;8.952;2022-09-17T13:33:47;10.50;;;1.90;;
4585;SDS011;2305;50.118;8.952;2022-09-17T13:39:10;3.90;;;0.90;;
4585;SDS011;2305;50.118;8.952;2022-09-17T13:41:59;4.60;;;1.37;;
4585;SDS011;2305;50.118;8.952;2022-09-17T13:44:33;4.20;;;1.07;;
4585;SDS011;2305;50.118;8.952;2022-09-17T13:47:14;3.03;;;1.00;;
4585;SDS011;2305;50.118;8.952;2022-09-17T13:49:48;4.83;;;1.30;;
4585;SDS011;2305;50.118;8.952;2022-09-17T13:52:27;2.77;;;1.13;;
4585;SDS011;2305;50.118;8.952;2022-09-17T13:54:59;4.87;;;1.57;;
4585;SDS011;2305;50.118;8.952;2022-09-17T13:57:28;5.87;;;1.60;;
4585;SDS011;2305;50.118;8.952;2022-09-17T13:59:59;3.43;;;1.20;;
4585;SDS011;2305;50.118;8.952;2022-09-17T14:02:38;5.40;;;1.00;;
4585;SDS011;2305;50.118;8.952;2022-09-17T14:05:29;4.87;;;1.10;;
4585;SDS011;2305;50.118;8.952;2022-09-17T14:10:56;2.73;;;0.90;;
4585;SDS011;2305;50.118;8.952;2022-09-17T14:16:22;3.20;;;1.17;;
4585;SDS011;2305;50.118;8.952;2022-09-17T14:19:02;8.60;;;0.90;;
4585;SDS011;2305;50.118;8.952;2022-09-17T14:21:54;2.33;;;0.90;;
4585;SDS011;2305;50.118;8.952;2022-09-17T14:24:33;3.77;;;1.17;;
4585;SDS011;2305;50.118;8.952;2022-09-17T14:32:40;1.33;;;0.77;;
4585;SDS011;2305;50.118;8.952;2022-09-17T14:35:14;4.83;;;1.20;;
4585;SDS011;2305;50.118;8.952;2022-09-17T14:37:47;2.97;;;1.03;;
4585;SDS011;2305;50.118;8.952;2022-09-17T14:40:20;3.87;;;1.10;;
4585;SDS011;2305;50.118;8.952;2022-09-17T14:42:53;1.80;;;1.37;;
4585;SDS011;2305;50.118;8.952;2022-09-17T14:45:24;4.60;;;1.77;;
4585;SDS011;2305;50.118;8.952;2022-09-17T14:50:47;4.83;;;1.20;;
4585;SDS011;2305;50.118;8.952;2022-09-17T14:53:16;3.63;;;1.20;;
4585;SDS011;2305;50.118;8.952;2022-09-17T14:55:46;1.43;;;1.10;;
4585;SDS011;2305;50.118;8.952;2022-09-17T14:58:24;2.40;;;1.37;;
4585;SDS011;2305;50.118;8.952;2022-09-17T15:00:56;2.60;;;1.50;;
4585;SDS011;2305;50.118;8.952;2022-09-17T15:03:26;3.20;;;1.73;;
4585;SDS011;2305;50.118;8.952;2022-09-17T15:05:56;4.70;;;2.10;;
4585;SDS011;2305;50.118;8.952;2022-09-17T15:08:24;6.20;;;1.87;;
4585;SDS011;2305;50.118;8.952;2022-09-17T15:10:57;2.80;;;1.80;;
4585;SDS011;2305;50.118;8.952;2022-09-17T15:13:28;3.67;;;1.60;;
4585;SDS011;2305;50.118;8.952;2022-09-17T15:15:58;5.67;;;1.37;;
4585;SDS011;2305;50.118;8.952;2022-09-17T15:18:31;2.23;;;1.60;;
4585;SDS011;2305;50.118;8.952;2022-09-17T15:21:09;4.57;;;1.60;;
4585;SDS011;2305;50.118;8.952;2022-09-17T15:23:49;3.20;;;1.43;;
4585;SDS011;2305;50.118;8.952;2022-09-17T15:26:25;7.80;;;1.60;;
4585;SDS011;2305;50.118;8.952;2022-09-17T15:29:01;2.90;;;1.43;;
4585;SDS011;2305;50.118;8.952;2022-09-17T15:31:34;4.47;;;1.33;;
4585;SDS011;2305;50.118;8.952;2022-09-17T15:34:02;3.70;;;1.33;;
4585;SDS011;2305;50.118;8.952;2022-09-17T15:36:34;4.50;;;1.70;;
4585;SDS011;2305;50.118;8.952;2022-09-17T15:39:27;2.83;;;1.33;;
4585;SDS011;2305;50.118;8.952;2022-09-17T15:41:56;1.43;;;1.10;;
4585;SDS011;2305;50.118;8.952;2022-09-17T15:44:25;3.07;;;1.13;;
4585;SDS011;2305;50.118;8.952;2022-09-17T15:50:11;1.40;;;1.03;;
4585;SDS011;2305;50.118;8.952;2022-09-17T15:52:43;2.87;;;1.20;;
4585;SDS011;2305;50.118;8.952;2022-09-17T15:55:27;3.40;;;1.00;;
4585;SDS011;2305;50.118;8.952;2022-09-17T15:57:57;5.57;;;1.60;;
4585;SDS011;2305;50.118;8.952;2022-09-17T16:00:25;4.50;;;1.27;;
4585;SDS011;2305;50.118;8.952;2022-09-17T16:02:53;1.30;;;1.00;;
4585;SDS011;2305;50.118;8.952;2022-09-17T16:08:22;6.73;;;1.50;;
4585;SDS011;2305;50.118;8.952;2022-09-17T16:10:51;14.73;;;1.73;;
4585;SDS011;2305;50.118;8.952;2022-09-17T16:13:21;3.37;;;1.30;;
4585;SDS011;2305;50.118;8.952;2022-09-17T16:15:54;4.93;;;1.73;;
4585;SDS011;2305;50.118;8.952;2022-09-17T16:18:22;5.37;;;1.60;;
4585;SDS011;2305;50.118;8.952;2022-09-17T16:20:50;3.63;;;1.27;;
4585;SDS011;2305;50.118;8.952;2022-09-17T16:23:18;3.03;;;1.10;;
4585;SDS011;2305;50.118;8.952;2022-09-17T16:25:50;2.43;;;0.87;;